Time;durP1;ratioP1;P1;durP2;ratioP2;P2;SDS_P1;SDS_P2;PMS_P1;PMS_P2;Temp;Humidity;BMP_temperature;BMP_pressure;BME280_temperature;BME280_humidity;BME280_pressure;Samples;Min_cycle;Max_cycle;Signal;HPM_P1;HPM_P2
2023/05/22 00:02:01;;;;;;;17.90;9.07;;;17.30;99.90;;;;;;5093093;28;20044;-76
2023/05/22 00:04:28;;;;;;;18.48;9.35;;;17.30;99.90;;;;;;5062393;28;20036;-76
2023/05/22 00:06:55;;;;;;;16.17;7.78;;;17.30;99.90;;;;;;5058291;28;20516;-76
2023/05/22 00:09:22;;;;;;;16.23;8.02;;;17.30;99.90;;;;;;5061440;28;20432;-76
2023/05/22 00:11:48;;;;;;;20.40;8.68;;;17.30;99.90;;;;;;5062152;28;20071;-76
2023/05/22 00:14:14;;;;;;;16.33;8.13;;;17.30;99.90;;;;;;5061523;28;20121;-76
2023/05/22 00:16:40;;;;;;;14.77;8.10;;;17.30;99.90;;;;;;5062921;28;20033;-76
2023/05/22 00:19:11;;;;;;;15.73;7.68;;;17.30;99.90;;;;;;5061920;28;20033;-76
2023/05/22 00:21:37;;;;;;;12.90;7.10;;;17.30;99.90;;;;;;5061543;28;20056;-76
2023/05/22 00:24:03;;;;;;;16.77;8.75;;;17.20;99.90;;;;;;5060382;28;20482;-76
2023/05/22 00:26:29;;;;;;;19.45;9.10;;;17.20;99.90;;;;;;5062863;28;20043;-76
2023/05/22 00:28:54;;;;;;;17.10;9.20;;;17.10;99.90;;;;;;5057803;28;20053;-76
2023/05/22 00:31:20;;;;;;;15.35;8.02;;;17.10;99.90;;;;;;5062832;28;20079;-76
2023/05/22 00:33:46;;;;;;;17.88;8.90;;;17.10;99.90;;;;;;5043996;28;20040;-76
2023/05/22 00:36:11;;;;;;;18.17;8.57;;;17.10;99.90;;;;;;5059386;28;20418;-76
2023/05/22 00:38:37;;;;;;;14.32;8.00;;;17.10;99.90;;;;;;5057772;28;20327;-76
2023/05/22 00:41:05;;;;;;;19.17;9.20;;;17.10;99.90;;;;;;5062875;28;20037;-76
2023/05/22 00:43:31;;;;;;;17.63;8.65;;;17.10;99.90;;;;;;5059123;28;20506;-76
2023/05/22 00:45:56;;;;;;;19.77;9.32;;;17.10;99.90;;;;;;5059798;28;20059;-76
2023/05/22 00:48:23;;;;;;;16.67;8.80;;;17.10;99.90;;;;;;5057022;28;20033;-76
2023/05/22 00:50:49;;;;;;;16.08;8.82;;;17.10;99.90;;;;;;5067118;28;20047;-76
2023/05/22 00:53:16;;;;;;;16.35;8.63;;;17.10;99.90;;;;;;5064732;28;20067;-76
2023/05/22 00:55:43;;;;;;;20.50;9.18;;;17.10;99.90;;;;;;5067098;28;20064;-76
2023/05/22 00:58:12;;;;;;;16.65;9.40;;;17.10;99.90;;;;;;5067298;28;20044;-76
2023/05/22 01:00:40;;;;;;;16.90;8.88;;;17.10;99.90;;;;;;5063397;28;20185;-76
2023/05/22 01:03:06;;;;;;;15.70;8.93;;;17.10;99.90;;;;;;5059780;28;20037;-76
2023/05/22 01:05:33;;;;;;;17.48;9.18;;;17.10;99.90;;;;;;5062197;28;20092;-76
2023/05/22 01:07:59;;;;;;;19.08;9.65;;;17.10;99.90;;;;;;5061865;28;20289;-76
2023/05/22 01:10:26;;;;;;;21.73;8.90;;;17.10;99.90;;;;;;5041832;28;20615;-76
2023/05/22 01:13:08;;;;;;;18.23;9.05;;;17.00;99.90;;;;;;5044800;28;20114;-76
2023/05/22 01:15:42;;;;;;;15.98;8.60;;;17.00;99.90;;;;;;5059867;28;20041;-76
2023/05/22 01:18:23;;;;;;;17.30;8.93;;;17.00;99.90;;;;;;5061941;28;20580;-76
2023/05/22 01:21:03;;;;;;;18.92;8.38;;;17.00;99.90;;;;;;5056489;28;20924;-76
2023/05/22 01:24:02;;;;;;;21.35;9.68;;;17.00;99.90;;;;;;5059826;28;20082;-76
2023/05/22 01:27:15;;;;;;;15.90;8.48;;;17.00;99.90;;;;;;5059188;28;20437;-76
2023/05/22 01:30:08;;;;;;;18.73;8.82;;;17.00;99.90;;;;;;5093863;28;20820;-76
2023/05/22 01:32:35;;;;;;;18.80;9.25;;;17.00;99.90;;;;;;5060731;28;20036;-76
2023/05/22 01:35:07;;;;;;;18.25;9.43;;;17.00;99.90;;;;;;5060923;28;20055;-76
2023/05/22 01:37:33;;;;;;;17.52;8.65;;;17.00;99.90;;;;;;5059191;28;20032;-76
2023/05/22 01:40:00;;;;;;;20.05;10.07;;;17.00;99.90;;;;;;5061208;28;20032;-76
2023/05/22 01:42:26;;;;;;;19.25;10.38;;;16.90;99.90;;;;;;5061136;28;20045;-76
2023/05/22 01:44:51;;;;;;;18.00;9.27;;;16.90;99.90;;;;;;5062134;28;20068;-76
2023/05/22 01:47:17;;;;;;;21.05;9.15;;;16.90;99.90;;;;;;5061513;28;20071;-76
2023/05/22 01:49:44;;;;;;;19.98;9.95;;;16.90;99.90;;;;;;5048739;28;20730;-76
2023/05/22 01:52:42;;;;;;;18.83;9.32;;;16.90;99.90;;;;;;5063706;28;20032;-76
2023/05/22 01:55:21;;;;;;;17.38;9.18;;;16.90;99.90;;;;;;5055429;28;20048;-76
2023/05/22 01:58:22;;;;;;;16.85;9.18;;;16.90;99.90;;;;;;5094573;28;20094;-76
2023/05/22 02:00:53;;;;;;;15.88;8.73;;;16.90;99.90;;;;;;5092983;28;20162;-76
2023/05/22 02:03:22;;;;;;;17.42;8.65;;;16.90;99.90;;;;;;5071458;28;20029;-76
2023/05/22 02:05:53;;;;;;;19.95;9.32;;;16.90;99.90;;;;;;5060574;28;20498;-76
2023/05/22 02:08:19;;;;;;;17.05;8.50;;;16.90;99.90;;;;;;5060297;28;20648;-76
2023/05/22 02:10:45;;;;;;;16.98;9.20;;;16.90;99.90;;;;;;5062037;28;20036;-76
2023/05/22 02:13:11;;;;;;;19.00;9.73;;;16.80;99.90;;;;;;5055710;28;20055;-76
2023/05/22 02:15:37;;;;;;;17.90;9.23;;;16.80;99.90;;;;;;5057858;28;20036;-76
2023/05/22 02:18:09;;;;;;;18.95;9.55;;;16.80;99.90;;;;;;5056581;28;20494;-76
2023/05/22 02:20:35;;;;;;;18.63;9.73;;;16.80;99.90;;;;;;5060595;28;20144;-76
2023/05/22 02:23:00;;;;;;;17.20;8.32;;;16.70;99.90;;;;;;5058138;28;20136;-76
2023/05/22 02:25:26;;;;;;;17.70;8.18;;;16.80;99.90;;;;;;5059146;28;20490;-76
2023/05/22 02:27:51;;;;;;;18.50;8.82;;;16.80;99.90;;;;;;5057609;28;20498;-76
2023/05/22 02:30:17;;;;;;;20.10;8.52;;;16.70;99.90;;;;;;5058364;28;20094;-76
2023/05/22 02:32:43;;;;;;;15.75;8.52;;;16.80;99.90;;;;;;5058932;28;20028;-76
2023/05/22 02:35:09;;;;;;;20.23;9.27;;;16.80;99.90;;;;;;5057350;28;20101;-76
2023/05/22 02:37:35;;;;;;;18.17;9.55;;;16.80;99.90;;;;;;5043909;28;20021;-76
2023/05/22 02:40:00;;;;;;;16.48;8.55;;;16.80;99.90;;;;;;5039063;28;20113;-76
2023/05/22 02:42:26;;;;;;;15.70;7.93;;;16.80;99.90;;;;;;5060002;28;20063;-76
2023/05/22 02:44:52;;;;;;;15.75;8.52;;;16.80;99.90;;;;;;5052848;28;20529;-76
2023/05/22 02:47:17;;;;;;;17.30;8.23;;;16.70;99.90;;;;;;5091183;28;20041;-76
2023/05/22 02:49:44;;;;;;;15.70;8.02;;;16.70;99.90;;;;;;5058740;28;20025;-76
2023/05/22 02:52:09;;;;;;;16.33;9.07;;;16.70;99.90;;;;;;5060381;28;20460;-76
2023/05/22 02:54:35;;;;;;;14.68;7.93;;;16.70;99.90;;;;;;5055161;28;20036;-76
2023/05/22 02:57:01;;;;;;;16.75;9.30;;;16.60;99.90;;;;;;5057675;28;20479;-76
2023/05/22 02:59:27;;;;;;;16.25;8.85;;;16.60;99.90;;;;;;5059983;28;20074;-76
2023/05/22 03:01:53;;;;;;;17.58;9.18;;;16.60;99.90;;;;;;5090262;28;20429;-76
2023/05/22 03:04:18;;;;;;;20.73;9.25;;;16.70;99.90;;;;;;5058747;28;20463;-76
2023/05/22 03:06:45;;;;;;;19.33;9.50;;;16.70;99.90;;;;;;5055056;28;20029;-76
2023/05/22 03:09:11;;;;;;;16.60;8.43;;;16.60;99.90;;;;;;5059620;28;20052;-76
2023/05/22 03:11:37;;;;;;;18.13;9.35;;;16.60;99.90;;;;;;5059019;28;20056;-76
2023/05/22 03:14:02;;;;;;;20.88;9.20;;;16.60;99.90;;;;;;5061610;28;20037;-76
2023/05/22 03:16:28;;;;;;;21.13;10.18;;;16.50;99.90;;;;;;5057170;28;20040;-76
2023/05/22 03:19:10;;;;;;;21.10;10.18;;;16.50;99.90;;;;;;5096493;28;20495;-76
2023/05/22 03:21:36;;;;;;;23.33;10.55;;;16.50;99.90;;;;;;5064770;28;20036;-76
2023/05/22 03:24:02;;;;;;;19.63;10.18;;;16.50;99.90;;;;;;5061188;28;20032;-76
2023/05/22 03:26:27;;;;;;;20.63;10.60;;;16.60;99.90;;;;;;5038565;28;20150;-76
2023/05/22 03:28:54;;;;;;;21.80;10.23;;;16.50;99.90;;;;;;5062072;28;20492;-76
2023/05/22 03:31:19;;;;;;;17.27;9.73;;;16.50;99.90;;;;;;5064498;28;20032;-76
2023/05/22 03:33:45;;;;;;;19.52;9.85;;;16.50;99.90;;;;;;5058765;28;20051;-76
2023/05/22 03:36:11;;;;;;;23.23;11.70;;;16.50;99.90;;;;;;5059939;28;20048;-76
2023/05/22 03:38:36;;;;;;;19.42;9.45;;;16.50;99.90;;;;;;5064514;28;20037;-76
2023/05/22 03:41:02;;;;;;;20.90;10.10;;;16.50;99.90;;;;;;5063056;28;20047;-76
2023/05/22 03:43:27;;;;;;;22.08;9.85;;;16.50;99.90;;;;;;5058719;28;20490;-76
2023/05/22 03:45:53;;;;;;;20.63;10.57;;;16.60;99.90;;;;;;5063427;28;20033;-76
2023/05/22 03:48:19;;;;;;;19.83;10.18;;;16.50;99.90;;;;;;5063972;28;20121;-76
2023/05/22 03:50:45;;;;;;;21.08;9.80;;;16.60;99.90;;;;;;5069091;28;20028;-76
2023/05/22 03:53:11;;;;;;;18.17;9.40;;;16.50;99.90;;;;;;5074602;28;20043;-76
2023/05/22 03:55:36;;;;;;;20.58;9.50;;;16.60;99.90;;;;;;5067715;28;20044;-76
2023/05/22 03:58:02;;;;;;;18.55;10.25;;;16.60;99.90;;;;;;5069756;28;20036;-76
2023/05/22 04:00:28;;;;;;;16.88;8.63;;;16.60;99.90;;;;;;5061192;28;20044;-76
2023/05/22 04:02:57;;;;;;;19.05;9.98;;;16.60;99.90;;;;;;5061475;28;20040;-76
2023/05/22 04:05:23;;;;;;;21.70;9.65;;;16.60;99.90;;;;;;5059770;28;20045;-76
2023/05/22 04:07:48;;;;;;;19.20;8.88;;;16.60;99.90;;;;;;5061447;28;20040;-76
2023/05/22 04:10:14;;;;;;;16.17;8.68;;;16.60;99.90;;;;;;5042583;28;20123;-76
2023/05/22 04:12:40;;;;;;;20.05;9.43;;;16.60;99.90;;;;;;5059591;28;20123;-76
2023/05/22 04:15:06;;;;;;;18.60;9.65;;;16.50;99.90;;;;;;5061199;28;20033;-76
2023/05/22 04:17:32;;;;;;;20.13;9.27;;;16.50;99.90;;;;;;5060000;28;20145;-76
2023/05/22 04:19:59;;;;;;;19.13;9.30;;;16.50;99.90;;;;;;5060982;28;20173;-76
2023/05/22 04:22:26;;;;;;;17.58;9.25;;;16.50;99.90;;;;;;5060969;28;20520;-76
2023/05/22 04:24:52;;;;;;;18.52;8.93;;;16.50;99.90;;;;;;5063123;28;20068;-76
2023/05/22 04:27:21;;;;;;;18.88;9.73;;;16.50;99.90;;;;;;5061084;28;20601;-76
2023/05/22 04:29:47;;;;;;;20.80;9.50;;;16.50;99.90;;;;;;5061077;28;20044;-76
2023/05/22 04:32:17;;;;;;;17.90;10.13;;;16.50;99.90;;;;;;5057358;28;20040;-76
2023/05/22 04:34:45;;;;;;;18.13;9.00;;;16.50;99.90;;;;;;5060754;28;20055;-76
2023/05/22 04:37:13;;;;;;;18.75;9.82;;;16.50;99.90;;;;;;5042549;28;20053;-76
2023/05/22 04:39:39;;;;;;;18.52;10.07;;;16.50;99.90;;;;;;5058443;28;20094;-76
2023/05/22 04:42:05;;;;;;;20.15;9.38;;;16.50;99.90;;;;;;5059893;28;20032;-76
2023/05/22 04:44:33;;;;;;;18.98;9.65;;;16.50;99.90;;;;;;5061498;28;20043;-76
2023/05/22 04:47:02;;;;;;;19.90;9.50;;;16.50;99.90;;;;;;5061110;28;20497;-76
2023/05/22 04:49:28;;;;;;;20.50;9.82;;;16.50;99.90;;;;;;5064363;28;20032;-76
2023/05/22 04:51:57;;;;;;;17.63;9.20;;;16.50;99.90;;;;;;5060239;28;20074;-76
2023/05/22 04:54:25;;;;;;;17.77;8.88;;;16.50;99.90;;;;;;5058617;28;20048;-76
2023/05/22 04:56:51;;;;;;;16.50;9.32;;;16.50;99.90;;;;;;5043863;28;20040;-76
2023/05/22 04:59:18;;;;;;;17.85;9.27;;;16.50;99.90;;;;;;5045654;28;20051;-76
2023/05/22 05:01:46;;;;;;;18.35;9.13;;;16.50;99.90;;;;;;5058307;28;20045;-76
2023/05/22 05:04:12;;;;;;;19.63;8.82;;;16.50;99.90;;;;;;5060356;28;20036;-76
2023/05/22 05:06:38;;;;;;;17.10;8.82;;;16.50;99.90;;;;;;5060826;28;20090;-76
2023/05/22 05:09:04;;;;;;;16.35;8.18;;;16.60;99.90;;;;;;5077581;28;20044;-76
2023/05/22 05:11:29;;;;;;;18.35;9.48;;;16.50;99.90;;;;;;5058304;28;20082;-76
2023/05/22 05:13:55;;;;;;;18.17;9.68;;;16.50;99.90;;;;;;5060711;28;20812;-76
2023/05/22 05:16:22;;;;;;;18.27;10.20;;;16.50;99.90;;;;;;5060298;28;20090;-76
2023/05/22 05:18:47;;;;;;;19.20;9.23;;;16.60;99.90;;;;;;5063119;28;20036;-76
2023/05/22 05:21:13;;;;;;;17.17;8.73;;;16.60;99.90;;;;;;5061721;28;20098;-76
2023/05/22 05:23:38;;;;;;;17.30;9.60;;;16.50;99.90;;;;;;5061373;28;20041;-76
2023/05/22 05:26:04;;;;;;;17.77;8.85;;;16.60;99.90;;;;;;5062318;28;20119;-76
2023/05/22 05:28:29;;;;;;;15.40;8.60;;;16.60;99.90;;;;;;5059815;28;20063;-76
2023/05/22 05:30:56;;;;;;;16.90;9.18;;;16.60;99.90;;;;;;5057673;28;20043;-76
2023/05/22 05:33:22;;;;;;;16.42;9.23;;;16.50;99.90;;;;;;5058273;28;20150;-76
2023/05/22 05:35:49;;;;;;;19.13;9.32;;;16.50;99.90;;;;;;5061715;28;20483;-76
2023/05/22 05:38:15;;;;;;;15.80;8.73;;;16.60;99.90;;;;;;5039695;28;21092;-76
2023/05/22 05:40:42;;;;;;;18.73;8.98;;;16.50;99.90;;;;;;5055894;28;20040;-76
2023/05/22 05:43:08;;;;;;;16.33;8.60;;;16.50;99.90;;;;;;5040785;28;20036;-76
2023/05/22 05:45:34;;;;;;;16.10;8.77;;;16.50;99.90;;;;;;5060094;28;20032;-76
2023/05/22 05:47:59;;;;;;;21.17;9.98;;;16.50;99.90;;;;;;5062102;28;20486;-76
2023/05/22 05:50:25;;;;;;;15.55;8.95;;;16.40;99.90;;;;;;5067807;28;20042;-76
2023/05/22 05:52:50;;;;;;;21.42;9.63;;;16.40;99.90;;;;;;5065079;28;20029;-76
2023/05/22 05:55:16;;;;;;;19.45;9.27;;;16.50;99.90;;;;;;5066755;28;20040;-76
2023/05/22 05:57:42;;;;;;;21.30;9.18;;;16.50;99.90;;;;;;5060963;28;20407;-76
2023/05/22 06:00:10;;;;;;;17.33;8.98;;;16.40;99.90;;;;;;5042822;28;20517;-76
2023/05/22 06:02:36;;;;;;;19.42;8.85;;;16.40;99.90;;;;;;5058285;28;20036;-76
2023/05/22 06:05:04;;;;;;;17.15;9.65;;;16.40;99.90;;;;;;5048106;28;20453;-76
2023/05/22 06:07:30;;;;;;;16.65;9.02;;;16.40;99.90;;;;;;5064422;28;20041;-76
2023/05/22 06:09:57;;;;;;;17.42;9.07;;;16.40;99.90;;;;;;5060402;28;20036;-76
2023/05/22 06:12:23;;;;;;;18.05;9.57;;;16.40;99.90;;;;;;5058904;28;20044;-76
2023/05/22 06:14:48;;;;;;;19.23;8.60;;;16.40;99.90;;;;;;5058905;28;20051;-76
2023/05/22 06:17:15;;;;;;;19.63;9.65;;;16.40;99.90;;;;;;5061117;28;20036;-76
2023/05/22 06:19:41;;;;;;;19.77;9.25;;;16.40;99.90;;;;;;5057023;28;20125;-76
2023/05/22 06:22:06;;;;;;;17.58;8.95;;;16.40;99.90;;;;;;5063204;28;20084;-76
2023/05/22 06:24:32;;;;;;;18.92;9.43;;;16.40;99.90;;;;;;5091302;28;20180;-76
2023/05/22 06:26:58;;;;;;;17.60;9.38;;;16.40;99.90;;;;;;5060488;28;20064;-77
2023/05/22 06:29:24;;;;;;;14.23;9.07;;;16.40;99.90;;;;;;5054584;28;20079;-76
2023/05/22 06:31:50;;;;;;;18.25;9.02;;;16.40;99.90;;;;;;5061126;28;20037;-76
2023/05/22 06:34:15;;;;;;;17.48;9.07;;;16.40;99.90;;;;;;5057327;28;20127;-75
2023/05/22 06:36:41;;;;;;;18.00;8.50;;;16.40;99.90;;;;;;5056678;28;20041;-76
2023/05/22 06:39:07;;;;;;;21.50;8.98;;;16.40;99.90;;;;;;5035148;28;20071;-76
2023/05/22 06:41:34;;;;;;;18.10;9.25;;;16.40;99.90;;;;;;5037548;28;20037;-76
2023/05/22 06:44:01;;;;;;;17.58;8.75;;;16.40;99.90;;;;;;5056564;28;20037;-76
2023/05/22 06:46:27;;;;;;;16.08;9.02;;;16.40;99.90;;;;;;5067506;28;20032;-76
2023/05/22 06:48:53;;;;;;;17.42;9.05;;;16.40;99.90;;;;;;5082529;28;20043;-76
2023/05/22 06:51:19;;;;;;;16.70;8.13;;;16.40;99.90;;;;;;5038486;28;20143;-76
2023/05/22 06:53:45;;;;;;;17.60;8.75;;;16.50;99.90;;;;;;5057064;28;20393;-76
2023/05/22 06:56:11;;;;;;;14.65;7.85;;;16.50;99.90;;;;;;5062853;28;20050;-76
2023/05/22 06:58:37;;;;;;;16.13;8.15;;;16.50;99.90;;;;;;5055059;28;20048;-76
2023/05/22 07:01:03;;;;;;;16.30;8.32;;;16.50;99.90;;;;;;5056480;28;20064;-76
2023/05/22 07:03:29;;;;;;;14.50;8.13;;;16.50;99.90;;;;;;5059667;28;20174;-76
2023/05/22 07:05:56;;;;;;;15.57;7.35;;;16.50;99.90;;;;;;5060431;28;20036;-76
2023/05/22 07:08:22;;;;;;;14.60;7.47;;;16.50;99.90;;;;;;5059369;28;20028;-76
2023/05/22 07:10:47;;;;;;;12.98;7.05;;;16.50;99.90;;;;;;5061856;28;20033;-76
2023/05/22 07:13:13;;;;;;;13.32;7.03;;;16.50;99.90;;;;;;5059660;28;20048;-75
2023/05/22 07:15:39;;;;;;;15.05;7.68;;;16.60;99.90;;;;;;5039896;28;20048;-76
2023/05/22 07:18:05;;;;;;;13.82;7.30;;;16.60;99.90;;;;;;5059136;28;20301;-76
2023/05/22 07:20:30;;;;;;;13.60;7.32;;;16.60;99.90;;;;;;5060481;28;20966;-75
2023/05/22 07:22:57;;;;;;;12.73;6.93;;;16.70;99.90;;;;;;5053422;28;20547;-76
2023/05/22 07:25:22;;;;;;;14.60;7.28;;;16.80;99.90;;;;;;5053257;28;20037;-76
2023/05/22 07:27:48;;;;;;;17.65;7.57;;;16.80;99.90;;;;;;5056676;28;20056;-76
2023/05/22 07:30:14;;;;;;;13.15;7.25;;;16.80;99.90;;;;;;5057236;28;20063;-76
2023/05/22 07:32:39;;;;;;;15.68;7.22;;;16.90;99.90;;;;;;5058191;28;20084;-76
2023/05/22 07:35:06;;;;;;;13.57;7.18;;;16.90;99.90;;;;;;5057383;28;20037;-76
2023/05/22 07:37:31;;;;;;;12.98;6.78;;;17.00;99.90;;;;;;5084484;28;20033;-76
2023/05/22 07:39:57;;;;;;;12.90;6.50;;;17.00;99.90;;;;;;5053491;28;22401;-75
2023/05/22 07:42:24;;;;;;;13.93;7.32;;;17.00;99.90;;;;;;5049923;28;20051;-76
2023/05/22 07:44:50;;;;;;;13.05;6.85;;;17.10;99.90;;;;;;5053251;28;20037;-75
2023/05/22 07:47:16;;;;;;;13.60;7.05;;;17.10;99.90;;;;;;5067013;28;20036;-75
2023/05/22 07:49:42;;;;;;;12.18;5.97;;;17.00;99.90;;;;;;5048300;28;20563;-76
2023/05/22 07:52:07;;;;;;;13.13;6.60;;;17.00;99.90;;;;;;5045252;28;20569;-76
2023/05/22 07:54:33;;;;;;;14.18;6.82;;;17.00;99.90;;;;;;5053253;28;20048;-76
2023/05/22 07:57:02;;;;;;;11.05;6.25;;;17.00;99.90;;;;;;5066125;28;20504;-75
2023/05/22 07:59:28;;;;;;;13.60;6.75;;;17.00;99.90;;;;;;5049794;28;20040;-75
2023/05/22 08:01:53;;;;;;;11.07;6.38;;;17.00;99.90;;;;;;5035893;28;20029;-76
2023/05/22 08:04:19;;;;;;;12.82;6.88;;;16.90;99.90;;;;;;5053380;28;20067;-75
2023/05/22 08:06:45;;;;;;;11.07;6.35;;;16.90;99.90;;;;;;5053721;28;20126;-75
2023/05/22 08:09:10;;;;;;;12.32;6.15;;;16.90;99.90;;;;;;5056293;28;20249;-76
2023/05/22 08:11:38;;;;;;;12.07;6.32;;;16.90;99.90;;;;;;5060957;28;20040;-76
2023/05/22 08:14:04;;;;;;;15.55;6.90;;;16.90;99.90;;;;;;5054366;28;20049;-76
2023/05/22 08:16:30;;;;;;;14.23;6.55;;;16.90;99.90;;;;;;5053811;28;20047;-75
2023/05/22 08:18:56;;;;;;;11.60;6.38;;;16.90;99.90;;;;;;5053566;28;20068;-75
2023/05/22 08:21:21;;;;;;;9.65;5.65;;;16.90;99.90;;;;;;5054842;28;20620;-75
2023/05/22 08:23:47;;;;;;;12.20;6.63;;;16.90;99.90;;;;;;5050732;28;20048;-75
2023/05/22 08:26:13;;;;;;;12.88;6.65;;;16.90;99.90;;;;;;5082444;28;20139;-75
2023/05/22 08:28:42;;;;;;;9.65;5.43;;;17.00;99.90;;;;;;5087041;28;20040;-75
2023/05/22 08:31:09;;;;;;;11.80;5.93;;;17.00;99.90;;;;;;5042639;28;20040;-76
2023/05/22 08:33:35;;;;;;;9.57;5.43;;;16.90;99.90;;;;;;5054920;28;20044;-75
2023/05/22 08:36:00;;;;;;;11.27;5.95;;;17.00;99.90;;;;;;5050851;28;20067;-76
2023/05/22 08:38:26;;;;;;;11.23;5.43;;;16.90;99.90;;;;;;5053325;28;20498;-75
2023/05/22 08:40:54;;;;;;;12.00;5.53;;;16.90;99.90;;;;;;5053105;28;20047;-75
2023/05/22 08:43:20;;;;;;;9.32;5.07;;;16.90;99.90;;;;;;5054066;28;20044;-75
2023/05/22 08:46:03;;;;;;;11.95;5.15;;;16.90;99.90;;;;;;5033858;28;20123;-75
2023/05/22 08:48:31;;;;;;;10.05;4.25;;;16.90;99.90;;;;;;5051847;28;20536;-75
2023/05/22 08:51:00;;;;;;;10.05;4.00;;;16.90;99.90;;;;;;5082352;28;20052;-75
2023/05/22 08:53:27;;;;;;;10.00;4.22;;;16.80;99.90;;;;;;5049996;28;20138;-75
2023/05/22 08:55:54;;;;;;;9.85;4.20;;;16.80;99.90;;;;;;5046876;28;20045;-76
2023/05/22 08:58:20;;;;;;;9.65;4.38;;;16.80;99.90;;;;;;5050448;28;20448;-75
2023/05/22 09:00:46;;;;;;;7.68;4.15;;;16.80;99.90;;;;;;5052839;28;20068;-75
2023/05/22 09:03:13;;;;;;;8.55;4.00;;;16.70;99.90;;;;;;5052007;28;20032;-76
2023/05/22 09:05:40;;;;;;;8.10;4.50;;;16.70;99.90;;;;;;5054479;28;21118;-75
2023/05/22 09:08:09;;;;;;;10.10;4.00;;;16.70;99.90;;;;;;5055606;28;20601;-76
2023/05/22 09:10:35;;;;;;;8.20;3.95;;;16.80;99.90;;;;;;5048756;28;20040;-76
2023/05/22 09:13:07;;;;;;;12.70;4.40;;;16.80;99.90;;;;;;5052194;28;20048;-75
2023/05/22 09:15:34;;;;;;;9.70;4.05;;;16.70;99.90;;;;;;5054653;28;20040;-76
2023/05/22 09:18:02;;;;;;;8.85;4.43;;;16.70;99.90;;;;;;5053949;28;20054;-76
2023/05/22 09:20:27;;;;;;;10.48;4.47;;;16.80;99.90;;;;;;5051638;28;20040;-75
2023/05/22 09:22:53;;;;;;;14.13;4.70;;;16.90;99.90;;;;;;5028962;28;20033;-76
2023/05/22 09:25:20;;;;;;;11.82;4.28;;;16.90;99.90;;;;;;5040086;28;20036;-76
2023/05/22 09:27:49;;;;;;;9.95;4.50;;;16.90;99.90;;;;;;5046393;28;20315;-76
2023/05/22 09:30:18;;;;;;;8.57;3.85;;;16.90;99.90;;;;;;5056781;28;20052;-75
2023/05/22 09:32:46;;;;;;;10.68;4.40;;;16.90;99.90;;;;;;5055419;28;20520;-77
2023/05/22 09:35:15;;;;;;;7.93;4.38;;;17.00;99.90;;;;;;5051975;28;20076;-76
2023/05/22 09:37:41;;;;;;;10.82;4.90;;;17.10;99.90;;;;;;5050589;28;20186;-76
2023/05/22 09:40:12;;;;;;;10.32;4.30;;;17.10;99.90;;;;;;5053593;28;20510;-76
2023/05/22 09:42:41;;;;;;;9.73;4.55;;;17.10;99.90;;;;;;5052527;28;20044;-76
2023/05/22 09:45:08;;;;;;;8.18;4.75;;;17.10;99.90;;;;;;5037651;28;20041;-76
2023/05/22 09:47:34;;;;;;;8.27;4.53;;;17.20;99.90;;;;;;5072741;28;20607;-76
2023/05/22 09:50:03;;;;;;;8.55;4.35;;;17.20;99.90;;;;;;5057031;28;20111;-76
2023/05/22 09:52:33;;;;;;;12.48;4.78;;;17.30;99.90;;;;;;5052019;28;20036;-76
2023/05/22 09:55:05;;;;;;;12.10;4.38;;;17.30;99.90;;;;;;5049611;28;20422;-76
2023/05/22 09:57:35;;;;;;;10.45;5.15;;;17.30;99.90;;;;;;5081461;28;20490;-76
2023/05/22 10:00:04;;;;;;;10.60;4.85;;;17.30;99.90;;;;;;5050224;28;20056;-76
2023/05/22 10:02:31;;;;;;;11.88;4.70;;;17.40;99.90;;;;;;5083577;28;20040;-77
2023/05/22 10:04:59;;;;;;;13.60;5.25;;;17.50;99.90;;;;;;5053379;28;20044;-77
2023/05/22 10:07:42;;;;;;;13.93;5.50;;;17.60;99.90;;;;;;5052856;28;20032;-76
2023/05/22 10:10:10;;;;;;;12.70;4.82;;;17.70;99.90;;;;;;5048828;28;20036;-76
2023/05/22 10:12:46;;;;;;;14.73;5.72;;;17.70;99.90;;;;;;5050534;28;20119;-77
2023/05/22 10:15:12;;;;;;;13.02;5.18;;;17.80;99.90;;;;;;5068833;28;20090;-77
2023/05/22 10:17:39;;;;;;;12.75;5.50;;;17.80;99.90;;;;;;5054516;28;20573;-76
2023/05/22 10:20:07;;;;;;;11.18;5.18;;;17.90;99.90;;;;;;5054030;28;20029;-76
2023/05/22 10:22:36;;;;;;;11.20;5.57;;;18.00;99.90;;;;;;5050440;28;20043;-76
2023/05/22 10:25:03;;;;;;;13.25;5.35;;;18.00;99.90;;;;;;5057458;28;20712;-76
2023/05/22 10:27:29;;;;;;;16.38;5.78;;;18.10;99.90;;;;;;5051913;28;20395;-76
2023/05/22 10:30:20;;;;;;;13.68;5.82;;;18.20;99.90;;;;;;5083989;28;20050;-76
2023/05/22 10:32:55;;;;;;;8.93;5.07;;;18.20;99.90;;;;;;5051194;28;20299;-76
2023/05/22 10:35:37;;;;;;;11.23;5.80;;;18.30;99.90;;;;;;5053104;28;20087;-76
2023/05/22 10:38:22;;;;;;;12.35;5.63;;;18.30;99.90;;;;;;5054861;28;20494;-76
2023/05/22 10:40:48;;;;;;;11.25;5.78;;;18.30;99.90;;;;;;5037903;28;20040;-76
2023/05/22 10:43:14;;;;;;;12.07;5.38;;;18.30;99.90;;;;;;5052928;28;20486;-76
2023/05/22 10:45:40;;;;;;;11.90;6.13;;;18.40;99.90;;;;;;5049216;28;20044;-76
2023/05/22 10:48:13;;;;;;;11.48;5.93;;;18.40;99.90;;;;;;5047617;28;20036;-76
2023/05/22 10:50:39;;;;;;;11.63;5.90;;;18.40;99.90;;;;;;5050350;28;20041;-75
2023/05/22 10:53:23;;;;;;;13.40;6.47;;;18.50;99.90;;;;;;5049839;28;20492;-77
2023/05/22 10:55:53;;;;;;;9.50;5.32;;;18.50;99.90;;;;;;5052808;28;20036;-76
2023/05/22 10:58:30;;;;;;;13.30;5.93;;;18.60;99.90;;;;;;5050294;28;20029;-76
2023/05/22 11:01:13;;;;;;;10.18;5.30;;;18.70;99.90;;;;;;5056648;28;20044;-77
2023/05/22 11:04:01;;;;;;;9.48;5.32;;;18.70;99.90;;;;;;5056340;28;20089;-76
2023/05/22 11:06:47;;;;;;;13.75;5.32;;;18.80;99.90;;;;;;5052249;28;20028;-76
2023/05/22 11:09:16;;;;;;;11.63;5.45;;;18.90;99.90;;;;;;5052442;28;20161;-76
2023/05/22 11:11:42;;;;;;;14.40;5.90;;;18.90;99.90;;;;;;5058528;28;20053;-77
2023/05/22 11:14:10;;;;;;;10.68;5.82;;;19.00;99.90;;;;;;5087021;28;20032;-76
2023/05/22 11:16:37;;;;;;;10.38;5.55;;;19.10;99.90;;;;;;5053770;28;20521;-76
2023/05/22 11:19:07;;;;;;;10.57;6.25;;;19.10;99.90;;;;;;5055634;28;20044;-76
2023/05/22 11:21:51;;;;;;;10.85;5.55;;;19.20;99.90;;;;;;5039751;28;20048;-76
2023/05/22 11:24:17;;;;;;;14.00;6.40;;;19.30;99.90;;;;;;5058091;28;20036;-76
2023/05/22 11:26:43;;;;;;;15.02;6.70;;;19.40;99.90;;;;;;5057836;28;20123;-76
2023/05/22 11:29:09;;;;;;;11.23;5.85;;;19.50;99.90;;;;;;5054486;28;20124;-77
2023/05/22 11:31:38;;;;;;;9.20;5.60;;;19.50;99.90;;;;;;5056529;28;20068;-77
2023/05/22 11:34:04;;;;;;;11.25;5.85;;;19.60;99.90;;;;;;5052392;28;20066;-76
2023/05/22 11:36:30;;;;;;;13.77;6.50;;;19.70;99.90;;;;;;5054397;28;20036;-76
2023/05/22 11:38:59;;;;;;;12.70;6.60;;;19.70;99.90;;;;;;5061472;28;20050;-76
2023/05/22 11:41:34;;;;;;;11.20;6.30;;;19.80;99.90;;;;;;5056606;28;20043;-76
2023/05/22 11:44:01;;;;;;;10.95;6.15;;;19.80;99.90;;;;;;5089904;28;20119;-76
2023/05/22 11:46:28;;;;;;;13.23;6.47;;;19.80;99.90;;;;;;5042924;28;20130;-77
2023/05/22 11:48:55;;;;;;;12.15;6.97;;;19.80;99.90;;;;;;5056369;28;20107;-76
2023/05/22 11:51:21;;;;;;;16.23;6.72;;;19.80;99.90;;;;;;5058867;28;20363;-76
2023/05/22 11:53:47;;;;;;;14.70;6.72;;;19.90;99.90;;;;;;5057731;28;20039;-76
2023/05/22 11:56:12;;;;;;;14.68;7.25;;;19.90;99.90;;;;;;5058599;28;20045;-76
2023/05/22 11:58:38;;;;;;;13.32;6.68;;;20.00;99.90;;;;;;5053766;28;21187;-76
2023/05/22 12:01:05;;;;;;;13.40;7.70;;;20.00;99.90;;;;;;5061317;28;20047;-76
2023/05/22 12:03:31;;;;;;;12.07;6.78;;;20.00;99.90;;;;;;5058278;28;20037;-76
2023/05/22 12:05:57;;;;;;;14.07;7.28;;;20.00;99.90;;;;;;5058476;28;20028;-76
2023/05/22 12:08:24;;;;;;;14.98;6.35;;;20.00;99.90;;;;;;5059417;28;20106;-76
2023/05/22 12:10:51;;;;;;;11.93;6.38;;;20.00;99.90;;;;;;5053773;28;20045;-77
2023/05/22 12:13:27;;;;;;;17.25;7.38;;;20.10;99.90;;;;;;5055477;28;20163;-77
2023/05/22 12:15:56;;;;;;;14.02;7.18;;;20.10;99.90;;;;;;5058799;28;20183;-77
2023/05/22 12:18:21;;;;;;;12.60;7.07;;;20.20;99.90;;;;;;5060387;28;20028;-76
2023/05/22 12:20:53;;;;;;;13.93;6.95;;;20.10;99.90;;;;;;5058000;28;20512;-76
2023/05/22 12:23:23;;;;;;;12.65;7.07;;;20.20;99.90;;;;;;5059086;28;20490;-77
2023/05/22 12:26:08;;;;;;;13.73;7.65;;;20.20;99.90;;;;;;5055895;28;20047;-76
2023/05/22 12:28:34;;;;;;;;;;;20.30;99.90;;;;;;5072493;28;20051;-76
2023/05/22 12:31:00;;;;;;;16.17;7.93;;;20.40;99.90;;;;;;5056813;28;19916;-76
2023/05/22 12:33:29;;;;;;;15.13;7.25;;;20.40;99.90;;;;;;5060024;28;20294;-76
2023/05/22 12:35:57;;;;;;;11.85;6.93;;;20.40;99.90;;;;;;5053195;28;20452;-77
2023/05/22 12:38:27;;;;;;;12.75;7.72;;;20.40;99.90;;;;;;5063267;28;20517;-77
2023/05/22 12:40:54;;;;;;;11.70;6.38;;;20.40;99.90;;;;;;5054636;28;20050;-77
2023/05/22 12:43:24;;;;;;;15.25;7.07;;;20.50;99.90;;;;;;5061018;28;20041;-77